createdAt,value
2022-09-12T00:01:36.444Z,99841.97
2022-09-12T00:04:06.829Z,99847.44
2022-09-12T00:06:37.288Z,99845.91
2022-09-12T00:09:07.557Z,99852.38
2022-09-12T00:11:37.727Z,99844.59
2022-09-12T00:14:06.907Z,99846.56
2022-09-12T00:16:37.147Z,99848.38
2022-09-12T00:19:08.229Z,99850.19
2022-09-12T00:21:38.431Z,99848.53
2022-09-12T00:24:07.589Z,99848.53
2022-09-12T00:26:36.289Z,99847.34
2022-09-12T00:29:05.041Z,99845.66
2022-09-12T00:31:33.650Z,99854.59
2022-09-12T00:34:02.798Z,99848.81
2022-09-12T00:36:32.990Z,99844.00
2022-09-12T00:39:01.604Z,99840.81
2022-09-12T00:41:31.548Z,99849.06
2022-09-12T00:44:02.074Z,99842.41
2022-09-12T00:46:37.318Z,99843.88
2022-09-12T00:49:10.368Z,99846.66
2022-09-12T00:51:45.698Z,99843.97
2022-09-12T00:54:16.856Z,99855.22
2022-09-12T00:56:46.361Z,99856.22
2022-09-12T00:59:17.995Z,99844.59
2022-09-12T01:01:47.107Z,99846.34
2022-09-12T01:04:15.928Z,99856.75
2022-09-12T01:06:46.216Z,99858.72
2022-09-12T01:09:17.706Z,99857.38
2022-09-12T01:11:48.621Z,99857.53
2022-09-12T01:14:18.354Z,99858.97
2022-09-12T01:16:47.397Z,99860.41
2022-09-12T01:19:35.267Z,99859.50
2022-09-12T01:22:16.138Z,99864.03
2022-09-12T01:24:54.049Z,99864.94
2022-09-12T01:27:31.662Z,99864.53
2022-09-12T01:30:17.532Z,99878.34
2022-09-12T01:33:18.209Z,99869.91
2022-09-12T01:35:50.416Z,99877.81
2022-09-12T01:38:25.253Z,99875.03
2022-09-12T01:41:01.128Z,99879.31
2022-09-12T01:43:34.026Z,99875.03
2022-09-12T01:46:09.170Z,99879.66
2022-09-12T01:48:40.563Z,99881.97
2022-09-12T01:51:13.088Z,99876.84
2022-09-12T01:53:45.759Z,99877.38
2022-09-12T01:56:17.086Z,99877.41
2022-09-12T01:58:48.164Z,99880.78
2022-09-12T02:01:22.294Z,99879.25
2022-09-12T02:03:56.191Z,99867.78
2022-09-12T02:06:29.582Z,99872.59
2022-09-12T02:09:01.281Z,99873.13
2022-09-12T02:11:32.718Z,99866.81
2022-09-12T02:14:04.447Z,99867.78
2022-09-12T02:16:37.863Z,99870.44
2022-09-12T02:19:10.213Z,99865.25
2022-09-12T02:21:39.887Z,99864.75
2022-09-12T02:24:09.760Z,99873.63
2022-09-12T02:26:45.096Z,99877.72
2022-09-12T02:29:13.722Z,99883.56
2022-09-12T02:31:47.072Z,99865.50
2022-09-12T02:34:27.491Z,99887.03
2022-09-12T02:37:04.405Z,99880.75
2022-09-12T02:39:33.130Z,99874.72
2022-09-12T02:42:02.333Z,99882.56
2022-09-12T02:44:31.494Z,99880.84
2022-09-12T02:47:04.420Z,99879.00
2022-09-12T02:49:32.668Z,99892.88
2022-09-12T02:52:02.712Z,99883.06
2022-09-12T02:54:31.852Z,99896.94
2022-09-12T02:57:00.507Z,99887.75
2022-09-12T02:59:29.402Z,99891.38
2022-09-12T03:02:13.402Z,99902.50
2022-09-12T03:04:55.784Z,99895.97
2022-09-12T03:07:37.696Z,99898.22
2022-09-12T03:10:10.814Z,99908.28
2022-09-12T03:12:47.286Z,99906.44
2022-09-12T03:15:24.128Z,99909.16
2022-09-12T03:18:03.453Z,99914.91
2022-09-12T03:20:42.155Z,99919.34
2022-09-12T03:23:16.104Z,99924.63
2022-09-12T03:25:47.616Z,99922.38
2022-09-12T03:28:17.761Z,99925.72
2022-09-12T03:30:47.619Z,99931.84
2022-09-12T03:33:18.774Z,99937.13
2022-09-12T03:35:48.013Z,99935.59
2022-09-12T03:38:16.876Z,99940.88
2022-09-12T03:40:47.797Z,99939.50
2022-09-12T03:43:17.931Z,99936.88
2022-09-12T03:45:46.543Z,99948.03
2022-09-12T03:48:15.145Z,99943.72
2022-09-12T03:50:45.121Z,99942.38
2022-09-12T03:53:17.102Z,99939.44
2022-09-12T03:55:45.865Z,99951.81
2022-09-12T03:58:14.476Z,99949.31
2022-09-12T04:00:44.372Z,99946.69
2022-09-12T04:03:12.999Z,99947.06
2022-09-12T04:05:41.686Z,99945.84
2022-09-12T04:08:11.678Z,99946.69
2022-09-12T04:10:39.959Z,99940.72
2022-09-12T04:13:08.626Z,99954.22
2022-09-12T04:15:37.208Z,99960.56
2022-09-12T04:18:06.296Z,99957.81
2022-09-12T04:20:35.025Z,99958.22
2022-09-12T04:23:03.644Z,99970.75
2022-09-12T04:25:33.366Z,99968.56
2022-09-12T04:28:02.232Z,99966.47
2022-09-12T04:30:30.905Z,99965.38
2022-09-12T04:32:59.597Z,99965.97
2022-09-12T04:35:28.697Z,99973.88
2022-09-12T04:37:56.887Z,99968.75
2022-09-12T04:40:25.628Z,99972.91
2022-09-12T04:42:56.155Z,99973.31
2022-09-12T04:45:24.845Z,99973.44
2022-09-12T04:47:53.616Z,99973.84
2022-09-12T04:50:22.727Z,99974.22
2022-09-12T04:52:51.721Z,99969.53
2022-09-12T04:55:20.637Z,99974.81
2022-09-12T04:57:49.640Z,99981.88
2022-09-12T05:00:20.719Z,99980.88
2022-09-12T05:02:49.402Z,99982.69
2022-09-12T05:05:18.203Z,99981.44
2022-09-12T05:07:46.410Z,99984.66
2022-09-12T05:10:15.093Z,99987.28
2022-09-12T05:12:43.740Z,99988.94
2022-09-12T05:15:12.882Z,99988.06
2022-09-12T05:17:42.855Z,99996.66
2022-09-12T05:20:12.907Z,99996.16
2022-09-12T05:22:41.185Z,100004.19
2022-09-12T05:25:10.916Z,100003.38
2022-09-12T05:27:39.479Z,100000.06
2022-09-12T05:30:09.518Z,100007.28
2022-09-12T05:32:38.074Z,100011.44
2022-09-12T05:35:08.656Z,100003.50
2022-09-12T05:37:36.956Z,100008.09
2022-09-12T05:40:08.647Z,100010.03
2022-09-12T05:42:37.594Z,100010.56
2022-09-12T05:45:07.307Z,100009.75
2022-09-12T05:47:36.362Z,100011.94
2022-09-12T05:50:10.814Z,100015.00
2022-09-12T05:52:40.344Z,100010.53
2022-09-12T05:55:09.726Z,100017.34
2022-09-12T05:57:38.288Z,100011.38
2022-09-12T06:00:09.831Z,100016.19
2022-09-12T06:02:40.478Z,100018.03
2022-09-12T06:05:09.522Z,100013.53
2022-09-12T06:07:43.209Z,100009.81
2022-09-12T06:10:12.041Z,100004.91
2022-09-12T06:12:40.693Z,100012.09
2022-09-12T06:15:10.504Z,100014.56
2022-09-12T06:17:39.124Z,100010.13
2022-09-12T06:20:08.881Z,100014.56
2022-09-12T06:22:37.181Z,100006.34
2022-09-12T06:25:09.062Z,100013.56
2022-09-12T06:27:37.670Z,100010.25
2022-09-12T06:30:07.548Z,100014.44
2022-09-12T06:32:39.188Z,100011.72
2022-09-12T06:35:08.682Z,100016.59
2022-09-12T06:37:37.011Z,100017.03
2022-09-12T06:40:10.276Z,100021.56
2022-09-12T06:42:38.973Z,100019.88
2022-09-12T06:45:11.613Z,100032.09
2022-09-12T06:47:40.398Z,100023.84
2022-09-12T06:50:09.927Z,100021.50
2022-09-12T06:52:38.322Z,100023.06
2022-09-12T06:55:09.287Z,100011.59
2022-09-12T06:57:38.998Z,100018.88
2022-09-12T07:00:09.295Z,100013.88
2022-09-12T07:02:37.919Z,100012.91
2022-09-12T07:05:08.387Z,100027.09
2022-09-12T07:07:36.798Z,100016.75
2022-09-12T07:10:06.915Z,100026.75
2022-09-12T07:12:37.001Z,100030.28
2022-09-12T07:15:06.403Z,100023.72
2022-09-12T07:17:35.070Z,100021.06
2022-09-12T07:20:04.063Z,100032.81
2022-09-12T07:22:32.384Z,100037.84
2022-09-12T07:25:01.083Z,100034.31
2022-09-12T07:27:29.602Z,100036.28
2022-09-12T07:30:00.553Z,100038.22
2022-09-12T07:32:29.661Z,100042.25
2022-09-12T07:34:58.244Z,100039.63
2022-09-12T07:37:26.478Z,100049.53
2022-09-12T07:39:55.773Z,100054.69
2022-09-12T07:42:24.503Z,100063.81
2022-09-12T07:44:53.835Z,100054.38
2022-09-12T07:47:23.909Z,100057.75
2022-09-12T07:49:52.990Z,100057.34
2022-09-12T07:52:21.571Z,100063.28
2022-09-12T07:54:50.345Z,100061.63
2022-09-12T07:57:19.137Z,100074.97
2022-09-12T07:59:52.885Z,100071.38
2022-09-12T08:02:23.329Z,100068.72
2022-09-12T08:04:52.033Z,100067.94
2022-09-12T08:07:20.651Z,100079.09
2022-09-12T08:09:49.326Z,100069.03
2022-09-12T08:12:18.103Z,100071.56
2022-09-12T08:14:46.761Z,100071.91
2022-09-12T08:17:15.631Z,100078.34
2022-09-12T08:19:45.258Z,100077.88
2022-09-12T08:22:13.947Z,100073.22
2022-09-12T08:24:44.056Z,100073.56
2022-09-12T08:27:12.701Z,100075.41
2022-09-12T08:29:41.336Z,100070.63
2022-09-12T08:32:09.982Z,100067.78
2022-09-12T08:34:38.261Z,100065.44
2022-09-12T08:37:08.427Z,100069.63
2022-09-12T08:39:37.244Z,100074.09
2022-09-12T08:42:07.467Z,100074.53
2022-09-12T08:44:49.620Z,100071.09
2022-09-12T08:47:22.396Z,100075.53
2022-09-12T08:49:57.628Z,100066.09
2022-09-12T08:52:31.263Z,100066.22
2022-09-12T08:54:59.923Z,100071.19
2022-09-12T08:57:28.528Z,100076.13
2022-09-12T08:59:57.212Z,100073.91
2022-09-12T09:02:44.107Z,100080.19
2022-09-12T09:05:21.034Z,100075.81
2022-09-12T09:08:10.859Z,100083.34
2022-09-12T09:10:48.927Z,100076.78
2022-09-12T09:13:40.376Z,100077.13
2022-09-12T09:16:15.337Z,100076.91
2022-09-12T09:18:45.139Z,100075.72
2022-09-12T09:21:18.934Z,100081.59
2022-09-12T09:23:52.422Z,100076.13
2022-09-12T09:26:26.769Z,100075.91
2022-09-12T09:28:58.304Z,100084.19
2022-09-12T09:31:28.415Z,100090.88
2022-09-12T09:33:57.122Z,100079.72
2022-09-12T09:36:34.078Z,100089.94
2022-09-12T09:39:07.181Z,100085.66
2022-09-12T09:41:44.985Z,100087.88
2022-09-12T09:44:13.733Z,100093.28
2022-09-12T09:46:42.021Z,100090.94
2022-09-12T09:49:13.177Z,100098.97
2022-09-12T09:51:42.878Z,100092.63
2022-09-12T09:54:18.791Z,100091.03
2022-09-12T09:56:47.458Z,100100.09
2022-09-12T09:59:18.683Z,100099.78
2022-09-12T10:01:49.279Z,100096.44
2022-09-12T10:04:23.552Z,100091.63
2022-09-12T10:06:56.371Z,100103.44
2022-09-12T10:09:28.426Z,100110.59
2022-09-12T10:11:57.925Z,100106.94
2022-09-12T10:14:38.787Z,100117.22
2022-09-12T10:17:33.808Z,100113.38
2022-09-12T10:20:20.512Z,100120.56
2022-09-12T10:22:50.567Z,100119.66
2022-09-12T10:25:21.593Z,100122.47
2022-09-12T10:27:55.450Z,100122.28
2022-09-12T10:30:25.986Z,100126.94
2022-09-12T10:32:55.590Z,100123.03
2022-09-12T10:35:25.624Z,100128.19
2022-09-12T10:37:55.729Z,100129.38
2022-09-12T10:40:26.356Z,100133.72
2022-09-12T10:42:55.052Z,100132.84
2022-09-12T10:45:26.923Z,100130.81
2022-09-12T10:47:58.252Z,100133.44
2022-09-12T10:50:31.750Z,100127.94
2022-09-12T10:53:18.038Z,100131.69
2022-09-12T10:56:00.621Z,100142.31
2022-09-12T10:58:39.972Z,100142.28
2022-09-12T11:01:17.879Z,100137.91
2022-09-12T11:03:59.606Z,100141.25
2022-09-12T11:06:34.908Z,100138.44
2022-09-12T11:09:07.638Z,100142.19
2022-09-12T11:11:45.064Z,100144.16
2022-09-12T11:14:25.260Z,100146.91
2022-09-12T11:17:00.640Z,100141.78
2022-09-12T11:19:51.115Z,100143.69
2022-09-12T11:22:31.096Z,100145.78
2022-09-12T11:25:06.402Z,100146.53
2022-09-12T11:27:47.833Z,100142.53
2022-09-12T11:30:18.334Z,100140.38
2022-09-12T11:32:54.890Z,100137.91
2022-09-12T11:35:26.015Z,100136.66
2022-09-12T11:38:16.097Z,100135.94
2022-09-12T11:40:47.503Z,100144.09
2022-09-12T11:43:25.229Z,100139.22
2022-09-12T11:45:54.511Z,100142.28
2022-09-12T11:48:33.560Z,100140.13
2022-09-12T11:51:04.951Z,100146.97
2022-09-12T11:53:36.555Z,100145.19
2022-09-12T11:56:09.544Z,100146.41
2022-09-12T11:58:41.836Z,100154.22
2022-09-12T12:01:14.480Z,100143.00
2022-09-12T12:03:44.979Z,100148.28
2022-09-12T12:06:14.167Z,100151.09
2022-09-12T12:08:45.075Z,100152.00
2022-09-12T12:11:15.185Z,100153.28
2022-09-12T12:13:49.046Z,100147.66
2022-09-12T12:16:21.374Z,100148.72
2022-09-12T12:18:55.738Z,100150.63
2022-09-12T12:21:37.634Z,100147.13
2022-09-12T12:24:18.413Z,100147.53
2022-09-12T12:26:57.914Z,100145.94
2022-09-12T12:29:44.032Z,100150.50
2022-09-12T12:32:26.564Z,100150.78
2022-09-12T12:35:37.552Z,100145.63
2022-09-12T12:38:26.684Z,100151.97
2022-09-12T12:40:55.350Z,100144.59
2022-09-12T12:43:32.667Z,100145.53
2022-09-12T12:46:09.642Z,100146.19
2022-09-12T12:49:03.762Z,100149.03
2022-09-12T12:51:41.698Z,100146.69
2022-09-12T12:54:43.003Z,100152.91
2022-09-12T12:57:52.718Z,100160.34
2022-09-12T13:00:30.123Z,100160.84
2022-09-12T13:03:02.695Z,100157.56
2022-09-12T13:05:39.774Z,100158.38
2022-09-12T13:08:11.491Z,100159.84
2022-09-12T13:10:40.241Z,100163.06
2022-09-12T13:13:09.855Z,100166.31
2022-09-12T13:15:50.875Z,100161.00
2022-09-12T13:18:23.247Z,100166.31
2022-09-12T13:20:55.017Z,100164.47
2022-09-12T13:23:25.326Z,100166.47
2022-09-12T13:25:55.393Z,100157.28
2022-09-12T13:28:24.669Z,100161.66
2022-09-12T13:30:59.495Z,100168.09
2022-09-12T13:33:36.195Z,100158.97
2022-09-12T13:36:17.627Z,100166.69
2022-09-12T13:38:55.422Z,100162.72
2022-09-12T13:41:41.552Z,100163.00
2022-09-12T13:44:13.302Z,100162.97
2022-09-12T13:46:42.869Z,100163.69
2022-09-12T13:49:20.796Z,100166.59
2022-09-12T13:51:57.774Z,100156.69
2022-09-12T13:54:27.375Z,100158.47
2022-09-12T13:56:55.926Z,100163.88
2022-09-12T13:59:24.816Z,100157.56
2022-09-12T14:01:53.177Z,100148.97
2022-09-12T14:04:53.150Z,100152.50
2022-09-12T14:07:22.806Z,100155.16
2022-09-12T14:09:56.165Z,100152.91
2022-09-12T14:12:28.686Z,100150.88
2022-09-12T14:14:57.820Z,100151.66
2022-09-12T14:17:31.596Z,100145.22
2022-09-12T14:20:03.972Z,100148.59
2022-09-12T14:22:34.333Z,100153.22
2022-09-12T14:25:03.191Z,100147.28
2022-09-12T14:27:38.294Z,100151.66
2022-09-12T14:30:24.548Z,100144.00
2022-09-12T14:33:07.778Z,100142.13
2022-09-12T14:35:42.640Z,100152.66
2022-09-12T14:38:23.432Z,100156.59
2022-09-12T14:40:53.445Z,100140.66
2022-09-12T14:43:23.201Z,100155.25
2022-09-12T14:45:55.956Z,100144.03
2022-09-12T14:48:25.281Z,100152.72
2022-09-12T14:50:55.629Z,100151.44
2022-09-12T14:53:28.051Z,100146.41
2022-09-12T14:56:00.943Z,100148.53
2022-09-12T14:58:30.640Z,100139.09
2022-09-12T15:01:01.988Z,100150.63
2022-09-12T15:03:33.756Z,100147.25
2022-09-12T15:06:05.392Z,100148.63
2022-09-12T15:08:34.182Z,100153.28
2022-09-12T15:11:02.817Z,100154.28
2022-09-12T15:13:40.394Z,100160.81
2022-09-12T15:16:10.905Z,100156.47
2022-09-12T15:18:40.975Z,100161.25
2022-09-12T15:21:14.211Z,100162.28
2022-09-12T15:23:44.981Z,100156.69
2022-09-12T15:26:15.758Z,100156.47
2022-09-12T15:28:43.903Z,100163.47
2022-09-12T15:31:17.005Z,100169.13
2022-09-12T15:33:46.001Z,100173.22
2022-09-12T15:36:19.231Z,100169.34
2022-09-12T15:38:49.325Z,100180.34
2022-09-12T15:41:19.665Z,100171.97
2022-09-12T15:43:48.799Z,100171.22
2022-09-12T15:46:19.301Z,100177.94
2022-09-12T15:48:48.334Z,100177.03
2022-09-12T15:51:20.785Z,100180.59
2022-09-12T15:53:50.369Z,100178.19
2022-09-12T15:56:21.265Z,100180.72
2022-09-12T15:58:58.760Z,100171.50
2022-09-12T16:01:29.384Z,100179.50
2022-09-12T16:03:58.670Z,100179.22
2022-09-12T16:06:36.279Z,100173.41
2022-09-12T16:09:05.947Z,100174.78
2022-09-12T16:11:34.645Z,100183.47
2022-09-12T16:14:03.889Z,100182.19
2022-09-12T16:16:32.445Z,100180.06
2022-09-12T16:19:01.159Z,100187.25
2022-09-12T16:21:31.980Z,100183.72
2022-09-12T16:24:00.600Z,100181.91
2022-09-12T16:26:29.426Z,100174.28
2022-09-12T16:28:58.899Z,100185.63
2022-09-12T16:31:29.063Z,100186.81
2022-09-12T16:33:57.850Z,100190.66
2022-09-12T16:36:26.511Z,100177.34
2022-09-12T16:38:56.614Z,100185.34
2022-09-12T16:41:26.486Z,100180.00
2022-09-12T16:43:55.309Z,100179.16
2022-09-12T16:46:25.276Z,100182.88
2022-09-12T16:48:56.027Z,100178.88
2022-09-12T16:51:26.430Z,100177.22
2022-09-12T16:53:57.284Z,100176.56
2022-09-12T16:56:26.378Z,100173.41
2022-09-12T16:58:55.177Z,100182.78
2022-09-12T17:01:25.241Z,100182.31
2022-09-12T17:03:54.776Z,100186.31
2022-09-12T17:06:25.220Z,100187.69
2022-09-12T17:08:54.223Z,100191.88
2022-09-12T17:11:26.629Z,100186.91
2022-09-12T17:14:06.224Z,100194.22
2022-09-12T17:16:36.627Z,100199.91
2022-09-12T17:19:06.159Z,100201.25
2022-09-12T17:21:35.593Z,100200.59
2022-09-12T17:24:05.309Z,100203.78
2022-09-12T17:26:35.279Z,100199.63
2022-09-12T17:29:04.046Z,100200.31
2022-09-12T17:31:32.851Z,100201.81
2022-09-12T17:34:02.109Z,100192.50
2022-09-12T17:36:32.061Z,100198.19
2022-09-12T17:39:01.165Z,100204.03
2022-09-12T17:41:31.921Z,100194.06
2022-09-12T17:44:03.120Z,100200.25
2022-09-12T17:46:34.938Z,100203.78
2022-09-12T17:49:06.029Z,100197.13
2022-09-12T17:51:34.759Z,100205.13
2022-09-12T17:54:06.293Z,100201.31
2022-09-12T17:56:35.806Z,100200.47
2022-09-12T17:59:07.179Z,100199.66
2022-09-12T18:01:54.546Z,100200.47
2022-09-12T18:04:23.375Z,100200.47
2022-09-12T18:06:52.869Z,100207.78
2022-09-12T18:09:23.356Z,100204.47
2022-09-12T18:11:52.243Z,100194.69
2022-09-12T18:14:22.693Z,100206.66
2022-09-12T18:16:51.303Z,100201.81
2022-09-12T18:19:20.909Z,100202.16
2022-09-12T18:21:49.469Z,100201.50
2022-09-12T18:24:19.277Z,100200.31
2022-09-12T18:26:48.220Z,100206.16
2022-09-12T18:29:17.359Z,100198.69
2022-09-12T18:31:47.860Z,100200.50
2022-09-12T18:34:17.614Z,100206.47
2022-09-12T18:36:47.904Z,100206.00
2022-09-12T18:39:17.226Z,100203.66
2022-09-12T18:41:46.501Z,100203.00
2022-09-12T18:44:15.145Z,100198.66
2022-09-12T18:46:43.974Z,100213.09
2022-09-12T18:49:14.325Z,100204.00
2022-09-12T18:51:44.062Z,100202.81
2022-09-12T18:54:14.939Z,100207.81
2022-09-12T18:56:45.740Z,100198.69
2022-09-12T18:59:15.163Z,100200.16
2022-09-12T19:01:44.148Z,100209.13
2022-09-12T19:04:16.418Z,100204.47
2022-09-12T19:06:46.713Z,100217.59
2022-09-12T19:09:17.048Z,100215.25
2022-09-12T19:11:49.641Z,100210.28
2022-09-12T19:14:19.840Z,100219.09
2022-09-12T19:16:48.199Z,100208.63
2022-09-12T19:19:18.555Z,100221.78
2022-09-12T19:21:47.247Z,100215.09
2022-09-12T19:24:17.160Z,100219.41
2022-09-12T19:26:46.209Z,100217.94
2022-09-12T19:29:16.628Z,100215.09
2022-09-12T19:31:45.525Z,100212.75
2022-09-12T19:34:14.499Z,100219.56
2022-09-12T19:36:46.607Z,100208.72
2022-09-12T19:39:16.653Z,100205.34
2022-09-12T19:41:45.859Z,100201.84
2022-09-12T19:44:14.538Z,100195.19
2022-09-12T19:46:42.958Z,100205.66
2022-09-12T19:49:13.009Z,100198.63
2022-09-12T19:51:41.991Z,100201.44
2022-09-12T19:54:12.324Z,100197.59
2022-09-12T19:56:41.090Z,100194.06
2022-09-12T19:59:10.037Z,100198.19
2022-09-12T20:01:38.581Z,100193.38
2022-09-12T20:04:08.019Z,100198.31
2022-09-12T20:06:36.964Z,100198.75
2022-09-12T20:09:05.977Z,100190.97
2022-09-12T20:11:36.097Z,100187.97
2022-09-12T20:14:04.807Z,100187.22
2022-09-12T20:16:33.755Z,100190.13
2022-09-12T20:19:06.152Z,100185.25
2022-09-12T20:21:36.141Z,100192.00
2022-09-12T20:24:06.957Z,100200.09
2022-09-12T20:26:37.280Z,100202.09
2022-09-12T20:29:06.529Z,100206.34
2022-09-12T20:31:35.651Z,100201.97
2022-09-12T20:34:04.607Z,100202.34
2022-09-12T20:36:33.714Z,100195.56
2022-09-12T20:39:03.165Z,100200.19
2022-09-12T20:41:34.122Z,100200.28
2022-09-12T20:44:04.742Z,100193.59
2022-09-12T20:46:33.651Z,100191.34
2022-09-12T20:49:02.501Z,100197.72
2022-09-12T20:51:31.585Z,100194.22
2022-09-12T20:54:01.475Z,100198.16
2022-09-12T20:56:31.787Z,100193.31
2022-09-12T20:59:00.488Z,100194.75
2022-09-12T21:01:31.454Z,100198.13
2022-09-12T21:04:00.958Z,100191.13
2022-09-12T21:06:29.712Z,100192.72
2022-09-12T21:09:00.698Z,100194.28
2022-09-12T21:11:29.925Z,100188.22
2022-09-12T21:13:59.164Z,100195.06
2022-09-12T21:16:32.000Z,100194.38
2022-09-12T21:19:00.753Z,100197.16
2022-09-12T21:21:29.586Z,100196.38
2022-09-12T21:24:02.437Z,100195.19
2022-09-12T21:26:31.302Z,100205.97
2022-09-12T21:29:00.223Z,100196.59
2022-09-12T21:31:28.734Z,100199.44
2022-09-12T21:33:58.979Z,100206.28
2022-09-12T21:36:27.757Z,100198.66
2022-09-12T21:38:59.339Z,100192.28
2022-09-12T21:41:28.931Z,100195.66
2022-09-12T21:43:57.358Z,100194.16
2022-09-12T21:46:26.142Z,100193.25
2022-09-12T21:48:55.094Z,100193.56
2022-09-12T21:51:25.215Z,100186.00
2022-09-12T21:53:54.693Z,100186.69
2022-09-12T21:56:23.393Z,100181.09
2022-09-12T21:58:51.802Z,100176.09
2022-09-12T22:01:20.696Z,100173.56
2022-09-12T22:03:49.599Z,100178.56
2022-09-12T22:06:22.394Z,100176.59
2022-09-12T22:08:52.833Z,100180.22
2022-09-12T22:11:22.989Z,100180.53
2022-09-12T22:13:51.281Z,100183.75
2022-09-12T22:16:20.096Z,100186.16
2022-09-12T22:18:50.227Z,100181.41
2022-09-12T22:21:22.094Z,100178.75
2022-09-12T22:24:09.646Z,100190.59
2022-09-12T22:26:42.544Z,100173.38
2022-09-12T22:29:11.820Z,100178.50
2022-09-12T22:31:40.682Z,100172.94
2022-09-12T22:34:09.469Z,100172.69
2022-09-12T22:36:39.184Z,100172.69
2022-09-12T22:39:09.972Z,100169.66
2022-09-12T22:41:38.814Z,100171.59
2022-09-12T22:44:07.722Z,100174.38
2022-09-12T22:46:36.128Z,100171.78
2022-09-12T22:49:05.384Z,100169.31
2022-09-12T22:51:34.664Z,100176.19
2022-09-12T22:54:03.547Z,100167.97
2022-09-12T22:56:33.965Z,100176.06
2022-09-12T22:59:02.468Z,100167.56
2022-09-12T23:01:31.927Z,100172.72
2022-09-12T23:04:01.269Z,100172.13
2022-09-12T23:06:30.131Z,100178.78
2022-09-12T23:08:58.785Z,100174.72
2022-09-12T23:11:27.880Z,100174.84
2022-09-12T23:13:57.678Z,100173.97
2022-09-12T23:16:28.455Z,100176.75
2022-09-12T23:18:57.399Z,100171.84
2022-09-12T23:21:26.302Z,100158.03
2022-09-12T23:23:56.338Z,100164.06
2022-09-12T23:26:28.263Z,100160.56
2022-09-12T23:28:59.233Z,100157.25
2022-09-12T23:31:30.360Z,100149.19
2022-09-12T23:34:01.986Z,100152.63
2022-09-12T23:36:30.863Z,100153.31
2022-09-12T23:38:59.933Z,100148.50
2022-09-12T23:41:28.861Z,100145.72
2022-09-12T23:43:59.038Z,100141.56
2022-09-12T23:46:27.512Z,100147.69
2022-09-12T23:48:56.320Z,100143.91
2022-09-12T23:51:25.003Z,100144.19
2022-09-12T23:53:53.803Z,100149.13
2022-09-12T23:56:23.110Z,100147.88
2022-09-12T23:58:51.634Z,100150.97
